sensor_id;sensor_type;location;lat;lon;timestamp;pressure;altitude;pressure_sealevel;temperature;humidity
11676;BME280;5894;42.768;23.404;2022-11-02T00:01:40;96317.09;;;11.34;100.00
11676;BME280;5894;42.768;23.404;2022-11-02T00:04:07;96321.00;;;11.36;100.00
11676;BME280;5894;42.768;23.404;2022-11-02T00:06:35;96252.25;;;10.90;100.00
11676;BME280;5894;42.768;23.404;2022-11-02T00:09:02;96309.59;;;11.22;100.00
11676;BME280;5894;42.768;23.404;2022-11-02T00:11:29;96320.09;;;11.27;100.00
11676;BME280;5894;42.768;23.404;2022-11-02T00:13:56;96314.25;;;11.12;100.00
11676;BME280;5894;42.768;23.404;2022-11-02T00:16:23;96308.41;;;11.15;100.00
11676;BME280;5894;42.768;23.404;2022-11-02T00:18:52;96319.19;;;11.18;100.00
11676;BME280;5894;42.768;23.404;2022-11-02T00:21:22;96316.31;;;11.15;100.00
11676;BME280;5894;42.768;23.404;2022-11-02T00:23:52;96306.63;;;11.10;100.00
11676;BME280;5894;42.768;23.404;2022-11-02T00:26:19;96320.97;;;11.04;100.00
11676;BME280;5894;42.768;23.404;2022-11-02T00:28:47;96299.84;;;10.85;100.00
11676;BME280;5894;42.768;23.404;2022-11-02T00:31:14;96313.19;;;10.94;100.00
11676;BME280;5894;42.768;23.404;2022-11-02T00:33:41;96310.25;;;10.95;100.00
11676;BME280;5894;42.768;23.404;2022-11-02T00:36:08;96309.19;;;10.96;100.00
11676;BME280;5894;42.768;23.404;2022-11-02T00:38:35;96308.78;;;10.89;100.00
11676;BME280;5894;42.768;23.404;2022-11-02T00:41:03;96313.97;;;10.94;100.00
11676;BME280;5894;42.768;23.404;2022-11-02T00:43:30;96315.75;;;10.99;100.00
11676;BME280;5894;42.768;23.404;2022-11-02T00:45:57;96313.59;;;11.01;100.00
11676;BME280;5894;42.768;23.404;2022-11-02T00:48:24;96316.31;;;10.96;100.00
11676;BME280;5894;42.768;23.404;2022-11-02T00:50:52;96317.16;;;10.91;100.00
11676;BME280;5894;42.768;23.404;2022-11-02T00:53:21;96310.31;;;10.90;100.00
11676;BME280;5894;42.768;23.404;2022-11-02T00:55:51;96313.25;;;10.89;100.00
11676;BME280;5894;42.768;23.404;2022-11-02T00:58:20;96314.03;;;10.89;100.00
11676;BME280;5894;42.768;23.404;2022-11-02T01:00:48;96310.63;;;10.89;100.00
11676;BME280;5894;42.768;23.404;2022-11-02T01:03:15;96321.47;;;10.87;100.00
11676;BME280;5894;42.768;23.404;2022-11-02T01:05:42;96315.66;;;10.85;100.00
11676;BME280;5894;42.768;23.404;2022-11-02T01:08:09;96309.38;;;10.81;100.00
11676;BME280;5894;42.768;23.404;2022-11-02T01:10:36;96306.75;;;10.81;100.00
11676;BME280;5894;42.768;23.404;2022-11-02T01:13:03;96314.88;;;10.85;100.00
11676;BME280;5894;42.768;23.404;2022-11-02T01:15:31;96311.47;;;10.84;100.00
11676;BME280;5894;42.768;23.404;2022-11-02T01:17:58;96303.63;;;10.79;100.00
11676;BME280;5894;42.768;23.404;2022-11-02T01:20:26;96310.16;;;10.82;100.00
11676;BME280;5894;42.768;23.404;2022-11-02T01:22:53;96316.31;;;10.77;100.00
11676;BME280;5894;42.768;23.404;2022-11-02T01:25:19;96258.72;;;10.42;100.00
11676;BME280;5894;42.768;23.404;2022-11-02T01:27:46;96303.16;;;10.72;100.00
11676;BME280;5894;42.768;23.404;2022-11-02T01:30:13;96303.16;;;10.72;100.00
11676;BME280;5894;42.768;23.404;2022-11-02T01:32:43;96309.78;;;10.70;100.00
11676;BME280;5894;42.768;23.404;2022-11-02T01:35:10;96304.63;;;10.59;100.00
11676;BME280;5894;42.768;23.404;2022-11-02T01:37:37;96302.22;;;10.63;100.00
11676;BME280;5894;42.768;23.404;2022-11-02T01:40:05;96306.81;;;10.57;100.00
11676;BME280;5894;42.768;23.404;2022-11-02T01:42:31;96279.09;;;10.36;100.00
11676;BME280;5894;42.768;23.404;2022-11-02T01:44:58;96303.16;;;10.53;100.00
11676;BME280;5894;42.768;23.404;2022-11-02T01:47:28;96304.75;;;10.49;100.00
11676;BME280;5894;42.768;23.404;2022-11-02T01:50:01;96297.72;;;10.45;100.00
11676;BME280;5894;42.768;23.404;2022-11-02T01:52:32;96301.25;;;10.35;100.00
11676;BME280;5894;42.768;23.404;2022-11-02T01:55:03;96303.16;;;10.29;100.00
11676;BME280;5894;42.768;23.404;2022-11-02T01:57:32;96291.38;;;10.22;100.00
11676;BME280;5894;42.768;23.404;2022-11-02T02:00:05;96288.75;;;10.22;100.00
11676;BME280;5894;42.768;23.404;2022-11-02T02:02:48;96295.81;;;10.26;100.00
11676;BME280;5894;42.768;23.404;2022-11-02T02:05:21;96268.09;;;10.05;100.00
11676;BME280;5894;42.768;23.404;2022-11-02T02:07:49;96285.59;;;10.20;100.00
11676;BME280;5894;42.768;23.404;2022-11-02T02:10:17;96288.66;;;10.03;100.00
11676;BME280;5894;42.768;23.404;2022-11-02T02:12:44;96288.59;;;10.08;100.00
11676;BME280;5894;42.768;23.404;2022-11-02T02:15:15;96285.13;;;10.13;100.00
11676;BME280;5894;42.768;23.404;2022-11-02T02:17:47;96288.59;;;10.08;100.00
11676;BME280;5894;42.768;23.404;2022-11-02T02:20:45;96287.81;;;10.08;100.00
11676;BME280;5894;42.768;23.404;2022-11-02T02:23:32;96291.34;;;9.98;100.00
11676;BME280;5894;42.768;23.404;2022-11-02T02:26:26;96287.38;;;10.01;100.00
11676;BME280;5894;42.768;23.404;2022-11-02T02:29:02;96283.78;;;9.91;100.00
11676;BME280;5894;42.768;23.404;2022-11-02T02:31:36;96291.44;;;9.88;100.00
11676;BME280;5894;42.768;23.404;2022-11-02T02:34:08;96281.75;;;9.83;100.00
11676;BME280;5894;42.768;23.404;2022-11-02T02:36:44;96279.91;;;9.84;100.00
11676;BME280;5894;42.768;23.404;2022-11-02T02:39:16;96281.75;;;9.83;100.00
11676;BME280;5894;42.768;23.404;2022-11-02T02:41:49;96275.19;;;9.81;100.00
11676;BME280;5894;42.768;23.404;2022-11-02T02:44:20;96274.16;;;9.77;100.00
11676;BME280;5894;42.768;23.404;2022-11-02T02:46:53;96278.88;;;9.80;100.00
11676;BME280;5894;42.768;23.404;2022-11-02T02:49:29;96287.03;;;9.78;100.00
11676;BME280;5894;42.768;23.404;2022-11-02T02:52:00;96279.41;;;9.77;100.00
11676;BME280;5894;42.768;23.404;2022-11-02T02:54:30;96242.75;;;9.56;100.00
11676;BME280;5894;42.768;23.404;2022-11-02T02:57:03;96279.94;;;9.79;100.00
11676;BME280;5894;42.768;23.404;2022-11-02T02:59:36;96265.09;;;9.59;100.00
11676;BME280;5894;42.768;23.404;2022-11-02T03:02:05;96237.81;;;9.50;100.00
11676;BME280;5894;42.768;23.404;2022-11-02T03:04:34;96283.63;;;9.78;100.00
11676;BME280;5894;42.768;23.404;2022-11-02T03:07:02;96276.00;;;9.76;100.00
11676;BME280;5894;42.768;23.404;2022-11-02T03:09:35;96272.09;;;9.74;100.00
11676;BME280;5894;42.768;23.404;2022-11-02T03:12:14;96278.41;;;9.73;100.00
11676;BME280;5894;42.768;23.404;2022-11-02T03:14:58;96281.66;;;9.65;100.00
11676;BME280;5894;42.768;23.404;2022-11-02T03:17:32;96281.38;;;9.66;100.00
11676;BME280;5894;42.768;23.404;2022-11-02T03:20:07;96284.84;;;9.62;100.00
11676;BME280;5894;42.768;23.404;2022-11-02T03:22:45;96285.91;;;9.61;100.00
11676;BME280;5894;42.768;23.404;2022-11-02T03:25:17;96254.75;;;9.39;100.00
11676;BME280;5894;42.768;23.404;2022-11-02T03:27:54;96283.28;;;9.61;100.00
11676;BME280;5894;42.768;23.404;2022-11-02T03:30:26;96296.16;;;9.62;100.00
11676;BME280;5894;42.768;23.404;2022-11-02T03:32:57;96254.47;;;9.40;100.00
11676;BME280;5894;42.768;23.404;2022-11-02T03:35:31;96290.63;;;9.64;100.00
11676;BME280;5894;42.768;23.404;2022-11-02T03:38:03;96260.78;;;9.44;100.00
11676;BME280;5894;42.768;23.404;2022-11-02T03:40:37;96290.91;;;9.62;100.00
11676;BME280;5894;42.768;23.404;2022-11-02T03:43:05;96293.81;;;9.61;100.00
11676;BME280;5894;42.768;23.404;2022-11-02T03:45:37;96291.44;;;9.59;100.00
11676;BME280;5894;42.768;23.404;2022-11-02T03:48:07;96289.88;;;9.58;100.00
11676;BME280;5894;42.768;23.404;2022-11-02T03:50:37;96290.13;;;9.56;100.00
11676;BME280;5894;42.768;23.404;2022-11-02T03:53:09;96290.97;;;9.52;100.00
11676;BME280;5894;42.768;23.404;2022-11-02T03:55:40;96263.25;;;9.31;100.00
11676;BME280;5894;42.768;23.404;2022-11-02T03:58:09;96287.03;;;9.49;100.00
11676;BME280;5894;42.768;23.404;2022-11-02T04:00:45;96293.44;;;9.43;100.00
11676;BME280;5894;42.768;23.404;2022-11-02T04:03:13;96288.16;;;9.43;100.00
11676;BME280;5894;42.768;23.404;2022-11-02T04:05:43;96292.66;;;9.43;100.00
11676;BME280;5894;42.768;23.404;2022-11-02T04:08:33;96292.66;;;9.38;100.00
11676;BME280;5894;42.768;23.404;2022-11-02T04:11:04;96285.31;;;9.35;100.00
11676;BME280;5894;42.768;23.404;2022-11-02T04:13:51;96284.91;;;9.23;100.00
11676;BME280;5894;42.768;23.404;2022-11-02T04:16:40;96287.19;;;9.34;100.00
11676;BME280;5894;42.768;23.404;2022-11-02T04:19:13;96288.47;;;9.37;100.00
11676;BME280;5894;42.768;23.404;2022-11-02T04:21:59;96281.16;;;9.29;100.00
11676;BME280;5894;42.768;23.404;2022-11-02T04:24:46;96288.28;;;9.28;100.00
11676;BME280;5894;42.768;23.404;2022-11-02T04:27:32;96198.47;;;8.67;100.00
11676;BME280;5894;42.768;23.404;2022-11-02T04:29:59;96287.47;;;9.28;100.00
11676;BME280;5894;42.768;23.404;2022-11-02T04:32:30;96286.47;;;9.24;100.00
11676;BME280;5894;42.768;23.404;2022-11-02T04:35:19;96288.59;;;9.22;100.00
11676;BME280;5894;42.768;23.404;2022-11-02T04:37:46;96294.66;;;9.22;100.00
11676;BME280;5894;42.768;23.404;2022-11-02T04:40:34;96283.88;;;9.18;100.00
11676;BME280;5894;42.768;23.404;2022-11-02T04:43:03;96285.97;;;9.22;100.00
11676;BME280;5894;42.768;23.404;2022-11-02T04:45:31;96295.44;;;9.23;100.00
11676;BME280;5894;42.768;23.404;2022-11-02T04:48:00;96292.81;;;9.17;100.00
11676;BME280;5894;42.768;23.404;2022-11-02T04:50:28;96293.59;;;9.18;100.00
11676;BME280;5894;42.768;23.404;2022-11-02T04:52:56;96301.78;;;9.16;100.00
11676;BME280;5894;42.768;23.404;2022-11-02T04:55:24;96295.50;;;9.12;100.00
11676;BME280;5894;42.768;23.404;2022-11-02T04:57:52;96217.72;;;8.57;100.00
11676;BME280;5894;42.768;23.404;2022-11-02T05:00:21;96296.81;;;9.10;100.00
11676;BME280;5894;42.768;23.404;2022-11-02T05:02:49;96304.47;;;9.06;100.00
11676;BME280;5894;42.768;23.404;2022-11-02T05:05:20;96301.25;;;9.14;100.00
11676;BME280;5894;42.768;23.404;2022-11-02T05:07:49;96301.06;;;9.06;100.00
11676;BME280;5894;42.768;23.404;2022-11-02T05:10:16;96297.38;;;9.07;100.00
11676;BME280;5894;42.768;23.404;2022-11-02T05:12:47;96301.88;;;9.01;100.00
11676;BME280;5894;42.768;23.404;2022-11-02T05:15:14;96251.84;;;8.62;100.00
11676;BME280;5894;42.768;23.404;2022-11-02T05:17:41;96308.00;;;8.92;100.00
11676;BME280;5894;42.768;23.404;2022-11-02T05:20:09;96306.41;;;8.91;100.00
11676;BME280;5894;42.768;23.404;2022-11-02T05:22:40;96312.16;;;8.98;100.00
11676;BME280;5894;42.768;23.404;2022-11-02T05:25:08;96235.66;;;8.45;100.00
11676;BME280;5894;42.768;23.404;2022-11-02T05:27:35;96323.28;;;8.84;100.00
11676;BME280;5894;42.768;23.404;2022-11-02T05:30:03;96324.31;;;8.83;100.00
11676;BME280;5894;42.768;23.404;2022-11-02T05:32:33;96323.56;;;8.78;100.00
11676;BME280;5894;42.768;23.404;2022-11-02T05:35:00;96329.34;;;8.80;100.00
11676;BME280;5894;42.768;23.404;2022-11-02T05:37:28;96328.78;;;8.83;100.00
11676;BME280;5894;42.768;23.404;2022-11-02T05:39:56;96324.06;;;8.85;100.00
11676;BME280;5894;42.768;23.404;2022-11-02T05:42:23;96321.44;;;8.85;100.00
11676;BME280;5894;42.768;23.404;2022-11-02T05:44:51;96332.16;;;8.94;100.00
11676;BME280;5894;42.768;23.404;2022-11-02T05:47:18;96338.19;;;8.99;100.00
11676;BME280;5894;42.768;23.404;2022-11-02T05:49:45;96341.34;;;9.01;100.00
11676;BME280;5894;42.768;23.404;2022-11-02T05:52:11;96348.97;;;9.03;100.00
11676;BME280;5894;42.768;23.404;2022-11-02T05:54:38;96353.66;;;9.06;100.00
11676;BME280;5894;42.768;23.404;2022-11-02T05:57:06;96349.19;;;9.06;100.00
11676;BME280;5894;42.768;23.404;2022-11-02T05:59:33;96347.59;;;9.10;100.00
11676;BME280;5894;42.768;23.404;2022-11-02T06:02:00;96341.81;;;9.08;100.00
11676;BME280;5894;42.768;23.404;2022-11-02T06:04:27;96348.41;;;9.11;100.00
11676;BME280;5894;42.768;23.404;2022-11-02T06:06:54;96341.81;;;9.08;100.00
11676;BME280;5894;42.768;23.404;2022-11-02T06:09:21;96358.28;;;9.24;100.00
11676;BME280;5894;42.768;23.404;2022-11-02T06:11:47;96341.75;;;9.18;100.00
11676;BME280;5894;42.768;23.404;2022-11-02T06:14:16;96355.06;;;9.37;100.00
11676;BME280;5894;42.768;23.404;2022-11-02T06:16:43;96353.97;;;9.43;100.00
11676;BME280;5894;42.768;23.404;2022-11-02T06:19:09;96361.31;;;9.46;100.00
11676;BME280;5894;42.768;23.404;2022-11-02T06:21:36;96357.06;;;9.50;100.00
11676;BME280;5894;42.768;23.404;2022-11-02T06:24:03;96309.38;;;9.23;100.00
11676;BME280;5894;42.768;23.404;2022-11-02T06:26:30;96364.13;;;9.60;100.00
11676;BME280;5894;42.768;23.404;2022-11-02T06:28:57;96370.41;;;9.64;100.00
11676;BME280;5894;42.768;23.404;2022-11-02T06:31:25;96362.16;;;9.76;100.00
11676;BME280;5894;42.768;23.404;2022-11-02T06:33:52;96352.16;;;9.73;100.00
11676;BME280;5894;42.768;23.404;2022-11-02T06:36:19;96362.91;;;9.81;100.00
11676;BME280;5894;42.768;23.404;2022-11-02T06:38:45;96366.50;;;9.90;100.00
11676;BME280;5894;42.768;23.404;2022-11-02T06:41:12;96334.16;;;9.85;100.00
11676;BME280;5894;42.768;23.404;2022-11-02T06:43:40;96362.16;;;10.05;100.00
11676;BME280;5894;42.768;23.404;2022-11-02T06:46:07;96363.69;;;10.11;100.00
11676;BME280;5894;42.768;23.404;2022-11-02T06:48:35;96361.53;;;10.18;100.00
11676;BME280;5894;42.768;23.404;2022-11-02T06:51:03;96327.75;;;9.96;100.00
11676;BME280;5894;42.768;23.404;2022-11-02T06:53:31;96362.72;;;10.30;100.00
11676;BME280;5894;42.768;23.404;2022-11-02T06:55:58;96354.50;;;10.37;100.00
11676;BME280;5894;42.768;23.404;2022-11-02T06:58:25;96326.94;;;10.24;100.00
11676;BME280;5894;42.768;23.404;2022-11-02T07:00:57;96348.53;;;10.50;100.00
11676;BME280;5894;42.768;23.404;2022-11-02T07:03:24;96359.25;;;10.59;100.00
11676;BME280;5894;42.768;23.404;2022-11-02T07:05:53;96245.03;;;9.92;100.00
11676;BME280;5894;42.768;23.404;2022-11-02T07:08:20;96350.94;;;10.71;100.00
11676;BME280;5894;42.768;23.404;2022-11-02T07:10:47;96356.66;;;10.78;100.00
11676;BME280;5894;42.768;23.404;2022-11-02T07:13:14;96352.09;;;10.83;100.00
11676;BME280;5894;42.768;23.404;2022-11-02T07:15:41;96353.13;;;10.87;100.00
11676;BME280;5894;42.768;23.404;2022-11-02T07:18:08;96347.47;;;10.94;100.00
11676;BME280;5894;42.768;23.404;2022-11-02T07:20:35;96350.84;;;10.99;100.00
11676;BME280;5894;42.768;23.404;2022-11-02T07:23:04;96291.69;;;10.63;100.00
11676;BME280;5894;42.768;23.404;2022-11-02T07:25:31;96353.63;;;11.08;100.00
11676;BME280;5894;42.768;23.404;2022-11-02T07:27:59;96345.63;;;11.13;100.00
11676;BME280;5894;42.768;23.404;2022-11-02T07:30:27;96327.31;;;11.03;100.00
11676;BME280;5894;42.768;23.404;2022-11-02T07:32:54;96343.94;;;11.22;100.00
11676;BME280;5894;42.768;23.404;2022-11-02T07:35:21;96342.53;;;11.30;100.00
11676;BME280;5894;42.768;23.404;2022-11-02T07:37:55;96340.84;;;11.34;100.00
11676;BME280;5894;42.768;23.404;2022-11-02T07:40:23;96303.41;;;11.13;100.00
11676;BME280;5894;42.768;23.404;2022-11-02T07:42:50;96336.00;;;11.41;100.00
11676;BME280;5894;42.768;23.404;2022-11-02T07:45:20;96333.22;;;11.51;100.00
11676;BME280;5894;42.768;23.404;2022-11-02T07:47:48;96299.38;;;11.34;100.00
11676;BME280;5894;42.768;23.404;2022-11-02T07:50:16;96340.66;;;11.63;100.00
11676;BME280;5894;42.768;23.404;2022-11-02T07:52:45;96331.69;;;11.64;100.00
11676;BME280;5894;42.768;23.404;2022-11-02T07:55:12;96333.19;;;11.70;100.00
11676;BME280;5894;42.768;23.404;2022-11-02T07:57:41;96332.03;;;11.76;100.00
11676;BME280;5894;42.768;23.404;2022-11-02T08:00:09;96325.00;;;11.85;100.00
11676;BME280;5894;42.768;23.404;2022-11-02T08:02:37;96318.38;;;11.88;100.00
11676;BME280;5894;42.768;23.404;2022-11-02T08:05:04;96319.19;;;12.02;100.00
11676;BME280;5894;42.768;23.404;2022-11-02T08:07:31;96319.38;;;12.05;100.00
11676;BME280;5894;42.768;23.404;2022-11-02T08:09:58;96322.72;;;12.11;100.00
11676;BME280;5894;42.768;23.404;2022-11-02T08:12:25;96323.13;;;12.18;100.00
11676;BME280;5894;42.768;23.404;2022-11-02T08:14:54;96312.94;;;12.25;100.00
11676;BME280;5894;42.768;23.404;2022-11-02T08:17:21;96312.06;;;12.30;100.00
11676;BME280;5894;42.768;23.404;2022-11-02T08:19:48;96313.34;;;12.32;100.00
11676;BME280;5894;42.768;23.404;2022-11-02T08:22:15;96303.94;;;12.40;100.00
11676;BME280;5894;42.768;23.404;2022-11-02T08:24:41;96308.25;;;12.49;100.00
11676;BME280;5894;42.768;23.404;2022-11-02T08:27:08;96308.53;;;12.62;100.00
11676;BME280;5894;42.768;23.404;2022-11-02T08:29:35;96296.75;;;12.68;100.00
11676;BME280;5894;42.768;23.404;2022-11-02T08:32:04;96300.97;;;12.82;100.00
11676;BME280;5894;42.768;23.404;2022-11-02T08:34:31;96293.28;;;12.95;100.00
11676;BME280;5894;42.768;23.404;2022-11-02T08:36:57;96292.78;;;13.06;100.00
11676;BME280;5894;42.768;23.404;2022-11-02T08:39:24;96283.44;;;13.09;100.00
11676;BME280;5894;42.768;23.404;2022-11-02T08:41:51;96280.91;;;13.17;100.00
11676;BME280;5894;42.768;23.404;2022-11-02T08:44:18;96294.38;;;13.30;100.00
11676;BME280;5894;42.768;23.404;2022-11-02T08:46:45;96280.53;;;13.33;100.00
11676;BME280;5894;42.768;23.404;2022-11-02T08:49:13;96290.50;;;13.49;100.00
11676;BME280;5894;42.768;23.404;2022-11-02T08:51:43;96287.59;;;13.59;100.00
11676;BME280;5894;42.768;23.404;2022-11-02T08:54:10;96284.69;;;13.70;100.00
11676;BME280;5894;42.768;23.404;2022-11-02T08:56:37;96273.31;;;13.69;100.00
11676;BME280;5894;42.768;23.404;2022-11-02T08:59:04;96284.47;;;13.88;100.00
11676;BME280;5894;42.768;23.404;2022-11-02T09:01:31;96255.34;;;13.66;100.00
11676;BME280;5894;42.768;23.404;2022-11-02T09:03:57;96277.97;;;14.03;98.96
11676;BME280;5894;42.768;23.404;2022-11-02T09:06:26;96271.28;;;14.06;99.13
11676;BME280;5894;42.768;23.404;2022-11-02T09:08:52;96266.28;;;14.04;98.21
11676;BME280;5894;42.768;23.404;2022-11-02T09:11:19;96270.53;;;14.14;97.67
11676;BME280;5894;42.768;23.404;2022-11-02T09:13:46;96263.06;;;14.16;98.37
11676;BME280;5894;42.768;23.404;2022-11-02T09:16:13;96262.47;;;14.19;98.57
11676;BME280;5894;42.768;23.404;2022-11-02T09:18:40;96260.91;;;14.18;99.35
11676;BME280;5894;42.768;23.404;2022-11-02T09:21:06;96255.44;;;14.23;100.00
11676;BME280;5894;42.768;23.404;2022-11-02T09:23:35;96255.16;;;14.33;99.11
11676;BME280;5894;42.768;23.404;2022-11-02T09:26:01;96248.47;;;14.36;99.44
11676;BME280;5894;42.768;23.404;2022-11-02T09:28:28;96242.28;;;14.40;100.00
11676;BME280;5894;42.768;23.404;2022-11-02T09:30:55;96235.28;;;14.53;99.16
11676;BME280;5894;42.768;23.404;2022-11-02T09:33:22;96245.59;;;14.72;96.54
11676;BME280;5894;42.768;23.404;2022-11-02T09:35:49;96235.78;;;14.81;95.51
11676;BME280;5894;42.768;23.404;2022-11-02T09:38:16;96226.56;;;14.87;96.02
11676;BME280;5894;42.768;23.404;2022-11-02T09:40:52;96227.03;;;14.97;93.39
11676;BME280;5894;42.768;23.404;2022-11-02T09:43:28;96226.56;;;15.04;92.46
11676;BME280;5894;42.768;23.404;2022-11-02T09:45:59;96221.09;;;15.09;92.48
11676;BME280;5894;42.768;23.404;2022-11-02T09:48:29;96212.97;;;15.14;91.79
11676;BME280;5894;42.768;23.404;2022-11-02T09:51:02;96213.44;;;15.25;92.77
11676;BME280;5894;42.768;23.404;2022-11-02T09:53:38;96210.59;;;15.30;91.15
11676;BME280;5894;42.768;23.404;2022-11-02T09:56:09;96205.09;;;15.43;88.63
11676;BME280;5894;42.768;23.404;2022-11-02T09:58:38;96208.69;;;15.48;88.23
11676;BME280;5894;42.768;23.404;2022-11-02T10:01:20;96198.53;;;15.58;87.67
11676;BME280;5894;42.768;23.404;2022-11-02T10:03:59;96201.03;;;15.63;86.78
11676;BME280;5894;42.768;23.404;2022-11-02T10:06:34;96189.72;;;15.75;86.37
11676;BME280;5894;42.768;23.404;2022-11-02T10:09:07;96187.63;;;15.89;85.60
11676;BME280;5894;42.768;23.404;2022-11-02T10:11:44;96190.69;;;16.00;85.61
11676;BME280;5894;42.768;23.404;2022-11-02T10:14:17;96179.69;;;16.10;84.58
11676;BME280;5894;42.768;23.404;2022-11-02T10:16:50;96181.50;;;16.27;83.22
11676;BME280;5894;42.768;23.404;2022-11-02T10:19:20;96184.56;;;16.37;82.78
11676;BME280;5894;42.768;23.404;2022-11-02T10:21:49;96156.56;;;16.31;82.30
11676;BME280;5894;42.768;23.404;2022-11-02T10:24:22;96169.00;;;16.48;81.19
11676;BME280;5894;42.768;23.404;2022-11-02T10:26:55;96167.19;;;16.61;81.12
11676;BME280;5894;42.768;23.404;2022-11-02T10:29:32;96112.03;;;16.40;79.06
11676;BME280;5894;42.768;23.404;2022-11-02T10:32:04;96168.34;;;16.93;77.57
11676;BME280;5894;42.768;23.404;2022-11-02T10:34:32;96132.25;;;16.83;77.21
11676;BME280;5894;42.768;23.404;2022-11-02T10:40:02;96149.94;;;17.20;76.02
11676;BME280;5894;42.768;23.404;2022-11-02T10:42:44;96145.47;;;17.24;76.92
11676;BME280;5894;42.768;23.404;2022-11-02T10:48:18;96128.09;;;17.39;75.12
11676;BME280;5894;42.768;23.404;2022-11-02T10:50:56;96138.00;;;17.51;73.22
11676;BME280;5894;42.768;23.404;2022-11-02T10:53:26;96129.13;;;17.59;71.14
11676;BME280;5894;42.768;23.404;2022-11-02T10:55:58;96129.16;;;17.71;70.74
11676;BME280;5894;42.768;23.404;2022-11-02T10:58:30;96101.72;;;17.71;67.29
11676;BME280;5894;42.768;23.404;2022-11-02T11:01:06;96068.72;;;17.63;66.12
11676;BME280;5894;42.768;23.404;2022-11-02T11:03:33;96094.50;;;17.83;67.10
11676;BME280;5894;42.768;23.404;2022-11-02T11:06:01;96110.03;;;18.06;66.37
11676;BME280;5894;42.768;23.404;2022-11-02T11:08:35;96115.13;;;18.23;65.40
11676;BME280;5894;42.768;23.404;2022-11-02T11:11:10;96107.19;;;18.39;64.23
11676;BME280;5894;42.768;23.404;2022-11-02T11:13:40;96126.41;;;18.56;64.79
11676;BME280;5894;42.768;23.404;2022-11-02T11:16:08;96093.69;;;18.59;64.27
11676;BME280;5894;42.768;23.404;2022-11-02T11:18:36;96093.22;;;18.69;61.96
11676;BME280;5894;42.768;23.404;2022-11-02T11:21:05;96086.03;;;18.86;61.11
11676;BME280;5894;42.768;23.404;2022-11-02T11:23:32;96081.31;;;18.95;62.91
11676;BME280;5894;42.768;23.404;2022-11-02T11:26:00;96083.16;;;19.06;60.93
11676;BME280;5894;42.768;23.404;2022-11-02T11:28:30;96082.03;;;19.08;59.42
11676;BME280;5894;42.768;23.404;2022-11-02T11:31:10;96071.94;;;19.17;58.26
11676;BME280;5894;42.768;23.404;2022-11-02T11:33:46;96033.56;;;19.09;58.86
11676;BME280;5894;42.768;23.404;2022-11-02T11:36:23;96058.94;;;19.31;56.99
11676;BME280;5894;42.768;23.404;2022-11-02T11:38:52;96028.91;;;19.22;57.78
11676;BME280;5894;42.768;23.404;2022-11-02T11:41:20;96056.25;;;19.47;55.89
11676;BME280;5894;42.768;23.404;2022-11-02T11:43:49;96050.50;;;19.60;54.84
11676;BME280;5894;42.768;23.404;2022-11-02T11:46:18;96044.88;;;19.81;54.57
11676;BME280;5894;42.768;23.404;2022-11-02T11:48:47;96020.25;;;19.75;52.69
11676;BME280;5894;42.768;23.404;2022-11-02T11:51:34;96040.53;;;19.92;52.58
11676;BME280;5894;42.768;23.404;2022-11-02T11:54:05;96033.41;;;20.00;51.63
11676;BME280;5894;42.768;23.404;2022-11-02T11:56:32;96033.13;;;20.05;51.37
11676;BME280;5894;42.768;23.404;2022-11-02T11:58:59;96030.06;;;20.22;48.40
11676;BME280;5894;42.768;23.404;2022-11-02T12:01:37;96015.78;;;20.34;48.34
11676;BME280;5894;42.768;23.404;2022-11-02T12:04:05;96015.50;;;20.39;47.27
11676;BME280;5894;42.768;23.404;2022-11-02T12:06:39;96013.34;;;20.44;47.00
11676;BME280;5894;42.768;23.404;2022-11-02T12:09:15;96009.84;;;20.63;43.94
11676;BME280;5894;42.768;23.404;2022-11-02T12:11:52;96010.06;;;20.74;43.03
11676;BME280;5894;42.768;23.404;2022-11-02T12:14:34;96004.09;;;20.84;42.10
11676;BME280;5894;42.768;23.404;2022-11-02T12:17:19;95999.28;;;20.93;41.44
11676;BME280;5894;42.768;23.404;2022-11-02T12:19:59;95991.72;;;20.99;41.96
11676;BME280;5894;42.768;23.404;2022-11-02T12:22:39;95985.81;;;21.12;40.24
11676;BME280;5894;42.768;23.404;2022-11-02T12:25:19;95985.75;;;21.28;39.96
11676;BME280;5894;42.768;23.404;2022-11-02T12:27:56;95985.78;;;21.32;39.39
11676;BME280;5894;42.768;23.404;2022-11-02T12:30:29;95986.00;;;21.46;39.04
11676;BME280;5894;42.768;23.404;2022-11-02T12:33:16;95989.91;;;21.52;38.68
11676;BME280;5894;42.768;23.404;2022-11-02T12:36:11;95970.00;;;21.53;39.25
11676;BME280;5894;42.768;23.404;2022-11-02T12:38:50;95977.38;;;21.59;39.87
11676;BME280;5894;42.768;23.404;2022-11-02T12:41:26;95979.47;;;21.70;39.17
11676;BME280;5894;42.768;23.404;2022-11-02T12:44:03;95977.22;;;21.75;38.72
11676;BME280;5894;42.768;23.404;2022-11-02T12:46:36;95974.69;;;21.86;38.06
11676;BME280;5894;42.768;23.404;2022-11-02T12:49:25;95974.31;;;21.87;37.88
11676;BME280;5894;42.768;23.404;2022-11-02T12:52:02;95970.91;;;21.90;37.23
11676;BME280;5894;42.768;23.404;2022-11-02T12:54:36;95975.53;;;21.93;37.55
11676;BME280;5894;42.768;23.404;2022-11-02T12:57:06;95962.44;;;21.88;38.17
11676;BME280;5894;42.768;23.404;2022-11-02T12:59:37;95962.16;;;21.97;38.48
11676;BME280;5894;42.768;23.404;2022-11-02T13:02:12;95968.00;;;21.99;38.66
11676;BME280;5894;42.768;23.404;2022-11-02T13:04:45;95971.47;;;22.03;37.58
11676;BME280;5894;42.768;23.404;2022-11-02T13:07:17;95969.63;;;22.07;36.86
11676;BME280;5894;42.768;23.404;2022-11-02T13:09:52;95919.03;;;21.83;36.78
11676;BME280;5894;42.768;23.404;2022-11-02T13:12:22;95965.03;;;22.08;36.82
11676;BME280;5894;42.768;23.404;2022-11-02T13:14:52;95971.72;;;22.21;36.83
11676;BME280;5894;42.768;23.404;2022-11-02T13:17:22;95964.13;;;22.30;35.93
11676;BME280;5894;42.768;23.404;2022-11-02T13:19:54;95963.38;;;22.33;35.40
11676;BME280;5894;42.768;23.404;2022-11-02T13:22:27;95961.09;;;22.35;36.07